createdAt,value
2023-05-15T00:02:12.453Z,99.40
2023-05-15T00:04:39.398Z,99.40
2023-05-15T00:07:06.528Z,99.40
2023-05-15T00:09:35.772Z,99.40
2023-05-15T00:12:05.765Z,99.40
2023-05-15T00:14:32.952Z,99.40
2023-05-15T00:16:59.929Z,99.40
2023-05-15T00:19:29.315Z,99.40
2023-05-15T00:21:56.294Z,99.40
2023-05-15T00:24:23.218Z,99.40
2023-05-15T00:26:50.354Z,99.40
2023-05-15T00:29:17.366Z,99.40
2023-05-15T00:31:45.322Z,99.40
2023-05-15T00:34:14.905Z,99.70
2023-05-15T00:36:41.940Z,99.40
2023-05-15T00:39:11.406Z,99.40
2023-05-15T00:41:40.861Z,99.40
2023-05-15T00:44:08.987Z,99.40
2023-05-15T00:46:41.175Z,99.40
2023-05-15T00:49:13.612Z,99.40
2023-05-15T00:51:43.927Z,99.40
2023-05-15T00:54:13.516Z,99.40
2023-05-15T00:56:44.937Z,99.30
2023-05-15T00:59:13.540Z,99.30
2023-05-15T01:01:45.300Z,99.20
2023-05-15T01:04:12.408Z,99.20
2023-05-15T01:06:39.247Z,99.20
2023-05-15T01:09:08.382Z,99.20
2023-05-15T01:11:44.536Z,99.50
2023-05-15T01:14:19.985Z,99.50
2023-05-15T01:16:47.278Z,99.20
2023-05-15T01:19:14.602Z,99.30
2023-05-15T01:22:22.133Z,99.30
2023-05-15T01:25:14.166Z,99.40
2023-05-15T01:27:56.961Z,99.30
2023-05-15T01:30:34.603Z,99.30
2023-05-15T01:33:13.842Z,99.30
2023-05-15T01:35:59.148Z,99.30
2023-05-15T01:38:38.530Z,99.30
2023-05-15T01:41:44.504Z,99.20
2023-05-15T01:44:31.339Z,99.30
2023-05-15T01:47:10.019Z,99.20
2023-05-15T01:49:38.413Z,99.20
2023-05-15T01:52:30.899Z,99.20
2023-05-15T01:54:58.675Z,99.20
2023-05-15T01:57:33.997Z,99.20
2023-05-15T02:00:02.855Z,99.20
2023-05-15T02:02:31.649Z,99.20
2023-05-15T02:04:59.646Z,99.20
2023-05-15T02:07:27.458Z,99.30
2023-05-15T02:09:55.496Z,99.30
2023-05-15T02:12:23.313Z,99.40
2023-05-15T02:14:51.012Z,99.40
2023-05-15T02:17:20.989Z,99.50
2023-05-15T02:19:50.258Z,99.50
2023-05-15T02:22:17.277Z,99.50
2023-05-15T02:24:47.114Z,99.50
2023-05-15T02:27:30.922Z,99.40
2023-05-15T02:30:08.758Z,99.40
2023-05-15T02:33:13.387Z,99.40
2023-05-15T02:35:43.954Z,99.40
2023-05-15T02:38:16.981Z,99.40
2023-05-15T02:40:46.775Z,99.40
2023-05-15T02:43:16.744Z,99.50
2023-05-15T02:45:47.135Z,99.40
2023-05-15T02:48:17.677Z,99.40
2023-05-15T02:50:45.792Z,99.30
2023-05-15T02:53:14.572Z,99.30
2023-05-15T02:55:41.605Z,99.30
2023-05-15T02:58:09.444Z,99.30
2023-05-15T03:00:36.462Z,99.40
2023-05-15T03:03:03.532Z,99.40
2023-05-15T03:05:30.466Z,99.40
2023-05-15T03:08:00.174Z,99.50
2023-05-15T03:10:27.147Z,99.40
2023-05-15T03:12:58.202Z,99.50
2023-05-15T03:15:25.819Z,99.50
2023-05-15T03:17:55.841Z,99.50
2023-05-15T03:20:24.935Z,99.60
2023-05-15T03:22:51.913Z,99.60
2023-05-15T03:25:18.868Z,99.60
2023-05-15T03:27:45.850Z,99.60
2023-05-15T03:30:13.298Z,99.60
2023-05-15T03:32:40.280Z,99.60
2023-05-15T03:35:07.498Z,99.70
2023-05-15T03:37:34.436Z,99.70
2023-05-15T03:40:01.308Z,99.60
2023-05-15T03:42:29.238Z,99.50
2023-05-15T03:44:59.593Z,99.50
2023-05-15T03:47:26.527Z,99.50
2023-05-15T03:49:53.526Z,99.60
2023-05-15T03:52:21.050Z,99.50
2023-05-15T03:54:48.114Z,99.50
2023-05-15T03:57:15.029Z,99.50
2023-05-15T03:59:44.545Z,99.50
2023-05-15T04:02:11.631Z,99.60
2023-05-15T04:04:38.768Z,99.60
2023-05-15T04:07:06.260Z,99.70
2023-05-15T04:09:34.612Z,99.70
2023-05-15T04:12:01.532Z,99.60
2023-05-15T04:14:30.405Z,99.60
2023-05-15T04:16:57.286Z,99.50
2023-05-15T04:19:24.233Z,99.50
2023-05-15T04:21:51.159Z,99.50
2023-05-15T04:24:20.252Z,99.50
2023-05-15T04:26:47.139Z,99.40
2023-05-15T04:29:14.202Z,99.50
2023-05-15T04:31:41.207Z,99.60
2023-05-15T04:34:10.692Z,99.60
2023-05-15T04:36:37.652Z,99.70
2023-05-15T04:39:06.994Z,99.70
2023-05-15T04:41:34.226Z,99.70
2023-05-15T04:44:01.216Z,99.70
2023-05-15T04:46:29.338Z,99.70
2023-05-15T04:49:02.616Z,99.80
2023-05-15T04:51:29.629Z,99.90
2023-05-15T04:53:56.558Z,99.90
2023-05-15T04:56:23.559Z,99.90
2023-05-15T04:58:50.521Z,99.90
2023-05-15T05:01:17.504Z,99.90
2023-05-15T05:03:44.423Z,99.80
2023-05-15T05:06:11.435Z,99.70
2023-05-15T05:08:43.429Z,99.70
2023-05-15T05:11:10.537Z,99.50
2023-05-15T05:13:37.464Z,99.50
2023-05-15T05:16:07.589Z,99.40
2023-05-15T05:18:38.905Z,99.30
2023-05-15T05:21:06.274Z,99.30
2023-05-15T05:23:33.475Z,99.40
2023-05-15T05:26:00.810Z,99.40
2023-05-15T05:28:27.866Z,99.30
2023-05-15T05:30:56.660Z,99.30
2023-05-15T05:33:23.484Z,99.40
2023-05-15T05:35:51.712Z,99.50
2023-05-15T05:38:18.709Z,99.50
2023-05-15T05:40:47.878Z,99.40
2023-05-15T05:43:14.838Z,99.10
2023-05-15T05:45:44.260Z,98.90
2023-05-15T05:48:13.338Z,98.90
2023-05-15T05:50:42.831Z,98.70
2023-05-15T05:53:09.880Z,98.60
2023-05-15T05:55:36.941Z,98.40
2023-05-15T05:58:08.518Z,98.10
2023-05-15T06:00:41.624Z,97.90
2023-05-15T06:03:12.057Z,97.60
2023-05-15T06:05:39.041Z,97.10
2023-05-15T06:08:06.656Z,96.90
2023-05-15T06:10:33.660Z,96.80
2023-05-15T06:13:03.118Z,96.60
2023-05-15T06:15:30.012Z,96.20
2023-05-15T06:17:57.005Z,96.10
2023-05-15T06:20:24.339Z,95.90
2023-05-15T06:22:56.164Z,95.80
2023-05-15T06:25:23.531Z,95.60
2023-05-15T06:27:52.805Z,95.20
2023-05-15T06:30:22.316Z,95.10
2023-05-15T06:32:49.518Z,95.20
2023-05-15T06:35:16.737Z,95.30
2023-05-15T06:37:43.637Z,94.20
2023-05-15T06:40:12.112Z,93.30
2023-05-15T06:42:38.985Z,93.70
2023-05-15T06:45:06.939Z,94.00
2023-05-15T06:47:33.853Z,93.60
2023-05-15T06:50:00.825Z,93.70
2023-05-15T06:52:27.843Z,93.70
2023-05-15T06:55:00.102Z,94.00
2023-05-15T06:57:27.269Z,93.80
2023-05-15T06:59:54.166Z,93.70
2023-05-15T07:02:28.477Z,93.30
2023-05-15T07:04:56.218Z,93.00
2023-05-15T07:07:23.573Z,92.50
2023-05-15T07:09:53.365Z,92.10
2023-05-15T07:12:22.913Z,91.50
2023-05-15T07:14:52.013Z,91.30
2023-05-15T07:17:21.456Z,91.10
2023-05-15T07:19:48.487Z,91.40
2023-05-15T07:22:15.539Z,90.30
2023-05-15T07:24:42.535Z,90.10
2023-05-15T07:27:09.382Z,90.40
2023-05-15T07:29:38.436Z,90.20
2023-05-15T07:32:05.819Z,90.00
2023-05-15T07:34:32.867Z,90.30
2023-05-15T07:36:59.790Z,90.60
2023-05-15T07:39:26.788Z,90.00
2023-05-15T07:41:56.213Z,87.50
2023-05-15T07:44:23.248Z,86.80
2023-05-15T07:46:52.666Z,86.70
2023-05-15T07:49:22.224Z,87.00
2023-05-15T07:51:49.150Z,85.90
2023-05-15T07:54:16.282Z,84.30
2023-05-15T07:56:43.757Z,83.00
2023-05-15T07:59:13.518Z,82.90
2023-05-15T08:01:40.487Z,83.60
2023-05-15T08:04:09.349Z,84.80
2023-05-15T08:06:39.897Z,85.10
2023-05-15T08:09:06.949Z,84.40
2023-05-15T08:11:34.160Z,83.80
2023-05-15T08:14:01.243Z,83.00
2023-05-15T08:16:30.937Z,82.60
2023-05-15T08:19:04.866Z,83.10
2023-05-15T08:21:32.385Z,83.10
2023-05-15T08:24:00.985Z,82.20
2023-05-15T08:26:31.078Z,81.40
2023-05-15T08:28:58.047Z,80.10
2023-05-15T08:31:25.041Z,80.20
2023-05-15T08:33:54.222Z,80.80
2023-05-15T08:36:23.813Z,79.30
2023-05-15T08:38:53.106Z,77.50
2023-05-15T08:41:39.989Z,78.40
2023-05-15T08:44:09.674Z,78.50
2023-05-15T08:46:36.941Z,78.00
2023-05-15T08:49:38.011Z,78.50
2023-05-15T08:52:05.861Z,77.00
2023-05-15T08:54:38.723Z,75.60
2023-05-15T08:57:06.360Z,75.40
2023-05-15T08:59:33.494Z,76.50
2023-05-15T09:02:00.872Z,76.40
2023-05-15T09:04:27.752Z,76.50
2023-05-15T09:06:55.570Z,75.80
2023-05-15T09:09:24.619Z,75.90
2023-05-15T09:11:52.044Z,76.90
2023-05-15T09:14:20.995Z,77.30
2023-05-15T09:16:51.053Z,77.20
2023-05-15T09:19:23.777Z,78.30
2023-05-15T09:21:50.771Z,77.30
2023-05-15T09:24:24.572Z,77.30
2023-05-15T09:27:06.336Z,76.90
2023-05-15T09:29:37.154Z,77.50
2023-05-15T09:32:07.757Z,78.30
2023-05-15T09:34:42.783Z,78.60
2023-05-15T09:37:13.829Z,78.20
2023-05-15T09:39:42.832Z,76.70
2023-05-15T09:42:12.236Z,76.00
2023-05-15T09:44:46.162Z,76.00
2023-05-15T09:47:14.470Z,76.10
2023-05-15T09:49:44.578Z,76.10
2023-05-15T09:52:11.857Z,75.10
2023-05-15T09:54:40.196Z,75.10
2023-05-15T09:57:11.635Z,74.50
2023-05-15T09:59:46.771Z,73.50
2023-05-15T10:02:35.323Z,72.70
2023-05-15T10:05:02.910Z,73.80
2023-05-15T10:07:35.576Z,72.00
2023-05-15T10:10:04.722Z,71.80
2023-05-15T10:12:32.576Z,72.20
2023-05-15T10:15:04.927Z,73.20
2023-05-15T10:17:37.174Z,73.00
2023-05-15T10:20:07.087Z,71.90
2023-05-15T10:22:38.561Z,70.30
2023-05-15T10:25:41.744Z,68.40
2023-05-15T10:28:10.495Z,68.90
2023-05-15T10:30:38.551Z,68.30
2023-05-15T10:33:06.827Z,68.00
2023-05-15T10:35:38.160Z,69.10
2023-05-15T10:38:08.311Z,69.40
2023-05-15T10:40:40.117Z,69.00
2023-05-15T10:43:11.872Z,67.40
2023-05-15T10:45:39.920Z,66.20
2023-05-15T10:48:08.416Z,66.40
2023-05-15T10:50:37.849Z,67.10
2023-05-15T10:53:04.903Z,67.50
2023-05-15T10:55:31.982Z,68.70
2023-05-15T10:57:59.003Z,69.40
2023-05-15T11:00:42.529Z,69.30
2023-05-15T11:03:17.039Z,69.60
2023-05-15T11:06:12.633Z,71.90
2023-05-15T11:08:41.592Z,68.40
2023-05-15T11:11:08.728Z,67.90
2023-05-15T11:14:07.993Z,67.60
2023-05-15T11:16:59.426Z,68.10
2023-05-15T11:19:29.177Z,68.20
2023-05-15T11:22:02.259Z,69.40
2023-05-15T11:24:53.753Z,70.30
2023-05-15T11:27:25.076Z,70.50
2023-05-15T11:30:25.099Z,70.60
2023-05-15T11:33:04.366Z,70.60
2023-05-15T11:35:39.540Z,71.40
2023-05-15T11:38:27.968Z,68.60
2023-05-15T11:41:03.215Z,69.10
2023-05-15T11:43:36.214Z,69.50
2023-05-15T11:46:12.604Z,70.30
2023-05-15T11:48:44.352Z,69.80
2023-05-15T11:51:19.226Z,68.60
2023-05-15T11:53:47.028Z,67.70
2023-05-15T11:56:19.403Z,68.20
2023-05-15T11:58:55.025Z,67.20
2023-05-15T12:01:21.927Z,64.70
2023-05-15T12:03:50.290Z,65.00
2023-05-15T12:06:18.419Z,64.90
2023-05-15T12:08:52.410Z,64.80
2023-05-15T12:11:23.325Z,64.20
2023-05-15T12:13:54.517Z,63.80
2023-05-15T12:16:39.907Z,63.90
2023-05-15T12:19:07.184Z,64.00
2023-05-15T12:21:43.254Z,62.80
2023-05-15T12:24:12.655Z,63.10
2023-05-15T12:26:40.101Z,63.20
2023-05-15T12:29:07.661Z,63.10
2023-05-15T12:31:35.788Z,63.90
2023-05-15T12:34:03.152Z,63.80
2023-05-15T12:36:31.322Z,63.70
2023-05-15T12:38:58.816Z,63.40
2023-05-15T12:41:29.346Z,63.30
2023-05-15T12:43:56.469Z,64.20
2023-05-15T12:46:31.797Z,62.80
2023-05-15T12:48:59.956Z,63.80
2023-05-15T12:51:27.491Z,61.50
2023-05-15T12:53:54.864Z,62.80
2023-05-15T12:56:24.921Z,62.10
2023-05-15T12:58:54.469Z,60.90
2023-05-15T13:01:23.504Z,62.30
2023-05-15T13:03:55.818Z,62.60
2023-05-15T13:06:37.941Z,62.30
2023-05-15T13:09:12.759Z,62.30
2023-05-15T13:11:47.015Z,63.40
2023-05-15T13:14:17.854Z,63.00
2023-05-15T13:16:48.000Z,62.10
2023-05-15T13:19:15.926Z,61.90
2023-05-15T13:21:43.910Z,63.00
2023-05-15T13:24:11.153Z,62.40
2023-05-15T13:26:38.254Z,63.30
2023-05-15T13:29:06.779Z,63.10
2023-05-15T13:31:34.121Z,63.10
2023-05-15T13:34:03.450Z,63.80
2023-05-15T13:36:32.916Z,63.90
2023-05-15T13:39:02.993Z,63.90
2023-05-15T13:41:29.997Z,64.50
2023-05-15T13:43:57.245Z,65.70
2023-05-15T13:46:24.156Z,65.80
2023-05-15T13:48:51.119Z,66.80
2023-05-15T13:51:18.058Z,65.30
2023-05-15T13:53:46.354Z,64.10
2023-05-15T13:56:16.323Z,63.10
2023-05-15T13:58:43.375Z,63.10
2023-05-15T14:01:10.322Z,64.20
2023-05-15T14:03:37.375Z,64.90
2023-05-15T14:06:04.630Z,64.50
2023-05-15T14:08:31.614Z,64.60
2023-05-15T14:10:58.515Z,61.30
2023-05-15T14:13:25.544Z,62.90
2023-05-15T14:15:52.427Z,64.20
2023-05-15T14:18:19.445Z,64.30
2023-05-15T14:20:46.376Z,64.80
2023-05-15T14:23:13.341Z,66.90
2023-05-15T14:25:41.450Z,65.40
2023-05-15T14:28:08.594Z,65.10
2023-05-15T14:30:35.483Z,65.50
2023-05-15T14:33:02.424Z,66.00
2023-05-15T14:35:31.203Z,64.60
2023-05-15T14:38:00.459Z,63.90
2023-05-15T14:40:29.459Z,63.80
2023-05-15T14:42:56.406Z,63.80
2023-05-15T14:45:23.354Z,64.20
2023-05-15T14:47:50.399Z,64.90
2023-05-15T14:50:20.047Z,65.40
2023-05-15T14:52:50.212Z,65.60
2023-05-15T14:55:22.099Z,65.60
2023-05-15T14:57:49.810Z,65.20
2023-05-15T15:00:17.348Z,65.30
2023-05-15T15:02:44.843Z,64.50
2023-05-15T15:05:12.149Z,64.50
2023-05-15T15:07:58.643Z,63.60
2023-05-15T15:10:25.794Z,63.70
2023-05-15T15:12:53.120Z,64.50
2023-05-15T15:15:21.137Z,64.90
2023-05-15T15:17:48.068Z,64.90
2023-05-15T15:20:16.819Z,63.90
2023-05-15T15:22:43.828Z,64.30
2023-05-15T15:25:11.097Z,63.90
2023-05-15T15:27:43.446Z,63.10
2023-05-15T15:30:11.049Z,63.00
2023-05-15T15:32:38.785Z,64.60
2023-05-15T15:35:06.751Z,64.00
2023-05-15T15:37:38.933Z,63.80
2023-05-15T15:40:07.399Z,64.20
2023-05-15T15:42:34.982Z,64.80
2023-05-15T15:45:02.370Z,64.30
2023-05-15T15:47:30.909Z,65.50
2023-05-15T15:50:00.860Z,66.70
2023-05-15T15:52:28.637Z,67.00
2023-05-15T15:54:55.640Z,67.50
2023-05-15T15:57:22.584Z,67.10
2023-05-15T15:59:49.778Z,67.00
2023-05-15T16:02:17.471Z,67.60
2023-05-15T16:04:44.682Z,68.20
2023-05-15T16:07:15.087Z,68.70
2023-05-15T16:09:44.139Z,68.50
2023-05-15T16:12:10.989Z,69.30
2023-05-15T16:14:37.928Z,69.30
2023-05-15T16:17:04.959Z,68.70
2023-05-15T16:19:31.919Z,69.60
2023-05-15T16:22:01.104Z,69.90
2023-05-15T16:24:29.220Z,69.30
2023-05-15T16:26:59.182Z,69.10
2023-05-15T16:29:29.149Z,67.70
2023-05-15T16:31:59.909Z,67.80
2023-05-15T16:34:27.385Z,68.10
2023-05-15T16:36:54.307Z,68.00
2023-05-15T16:39:22.100Z,68.50
2023-05-15T16:41:54.079Z,68.10
2023-05-15T16:44:24.264Z,67.50
2023-05-15T16:46:51.400Z,68.10
2023-05-15T16:49:18.331Z,68.00
2023-05-15T16:51:48.029Z,69.10
2023-05-15T16:54:16.129Z,68.50
2023-05-15T16:56:42.995Z,68.40
2023-05-15T16:59:10.062Z,67.40
2023-05-15T17:01:37.057Z,67.10
2023-05-15T17:04:04.227Z,67.30
2023-05-15T17:06:31.491Z,66.80
2023-05-15T17:08:58.426Z,66.30
2023-05-15T17:11:25.622Z,66.90
2023-05-15T17:13:55.033Z,65.50
2023-05-15T17:16:21.994Z,65.70
2023-05-15T17:18:51.546Z,65.90
2023-05-15T17:21:18.764Z,66.00
2023-05-15T17:23:45.742Z,65.90
2023-05-15T17:26:12.722Z,65.50
2023-05-15T17:28:42.248Z,66.00
2023-05-15T17:31:11.585Z,65.40
2023-05-15T17:33:39.726Z,65.90
2023-05-15T17:36:06.773Z,66.30
2023-05-15T17:38:38.543Z,66.70
2023-05-15T17:41:07.136Z,67.10
2023-05-15T17:43:34.056Z,67.30
2023-05-15T17:46:01.157Z,67.70
2023-05-15T17:48:28.088Z,67.90
2023-05-15T17:50:55.474Z,68.40
2023-05-15T17:53:24.827Z,68.80
2023-05-15T17:55:52.063Z,69.00
2023-05-15T17:58:19.063Z,69.20
2023-05-15T18:00:46.145Z,69.90
2023-05-15T18:03:13.173Z,69.30
2023-05-15T18:05:40.203Z,69.40
2023-05-15T18:08:07.158Z,69.60
2023-05-15T18:10:35.212Z,69.80
2023-05-15T18:13:02.072Z,70.30
2023-05-15T18:15:31.764Z,71.00
2023-05-15T18:17:59.500Z,71.60
2023-05-15T18:20:26.663Z,72.30
2023-05-15T18:22:53.570Z,73.10
2023-05-15T18:25:20.520Z,73.90
2023-05-15T18:27:47.471Z,74.50
2023-05-15T18:30:14.648Z,75.10
2023-05-15T18:32:42.677Z,75.50
2023-05-15T18:35:10.418Z,76.00
2023-05-15T18:37:37.399Z,76.30
2023-05-15T18:40:05.349Z,76.70
2023-05-15T18:42:32.718Z,77.20
2023-05-15T18:45:02.070Z,77.70
2023-05-15T18:47:29.130Z,78.60
2023-05-15T18:49:56.994Z,78.70
2023-05-15T18:52:23.892Z,79.00
2023-05-15T18:54:52.509Z,79.10
2023-05-15T18:57:22.685Z,79.70
2023-05-15T18:59:49.640Z,80.40
2023-05-15T19:02:16.525Z,80.70
2023-05-15T19:04:43.749Z,81.00
2023-05-15T19:07:10.686Z,81.40
2023-05-15T19:09:37.681Z,81.80
2023-05-15T19:12:07.604Z,82.10
2023-05-15T19:14:34.547Z,82.60
2023-05-15T19:17:01.500Z,83.20
2023-05-15T19:19:28.805Z,83.90
2023-05-15T19:21:55.678Z,84.40
2023-05-15T19:24:22.586Z,85.00
2023-05-15T19:26:51.625Z,85.50
2023-05-15T19:29:18.624Z,86.00
2023-05-15T19:31:46.015Z,86.50
2023-05-15T19:34:15.951Z,87.00
2023-05-15T19:36:46.540Z,87.50
2023-05-15T19:39:14.850Z,87.70
2023-05-15T19:41:47.281Z,87.90
2023-05-15T19:44:14.264Z,88.40
2023-05-15T19:46:41.334Z,88.70
2023-05-15T19:49:09.378Z,89.00
2023-05-15T19:51:36.389Z,89.30
2023-05-15T19:54:05.695Z,89.60
2023-05-15T19:56:32.729Z,89.90
2023-05-15T19:59:00.477Z,89.90
2023-05-15T20:01:27.434Z,89.90
2023-05-15T20:03:57.455Z,90.00
2023-05-15T20:06:24.684Z,90.00
2023-05-15T20:08:51.600Z,90.00
2023-05-15T20:11:18.775Z,90.00
2023-05-15T20:13:48.416Z,90.10
2023-05-15T20:16:16.549Z,90.20
2023-05-15T20:18:44.936Z,90.30
2023-05-15T20:21:11.902Z,90.40
2023-05-15T20:23:41.479Z,90.60
2023-05-15T20:26:10.915Z,90.70
2023-05-15T20:28:37.827Z,90.70
2023-05-15T20:31:06.101Z,90.80
2023-05-15T20:33:33.203Z,90.90
2023-05-15T20:36:03.412Z,90.90
2023-05-15T20:38:30.416Z,90.90
2023-05-15T20:40:57.581Z,91.00
2023-05-15T20:43:24.639Z,91.00
2023-05-15T20:45:51.921Z,91.00
2023-05-15T20:48:20.987Z,91.20
2023-05-15T20:50:47.946Z,91.30
2023-05-15T20:53:15.021Z,91.40
2023-05-15T20:55:44.478Z,91.40
2023-05-15T20:58:11.686Z,91.40
2023-05-15T21:00:40.854Z,91.50
2023-05-15T21:03:08.156Z,91.40
2023-05-15T21:05:35.079Z,91.50
2023-05-15T21:08:02.895Z,91.60
2023-05-15T21:10:29.933Z,91.60
2023-05-15T21:12:59.221Z,91.50
2023-05-15T21:15:26.218Z,91.60
2023-05-15T21:17:53.301Z,91.70
2023-05-15T21:20:20.338Z,91.90
2023-05-15T21:22:47.303Z,92.00
2023-05-15T21:25:15.831Z,92.00
2023-05-15T21:27:42.726Z,92.10
2023-05-15T21:30:10.047Z,92.10
2023-05-15T21:32:37.141Z,92.10
2023-05-15T21:35:07.218Z,92.10
2023-05-15T21:37:35.306Z,92.10
2023-05-15T21:40:02.534Z,92.10
2023-05-15T21:42:31.801Z,92.30
2023-05-15T21:44:59.319Z,92.50
2023-05-15T21:47:26.508Z,92.60
2023-05-15T21:49:53.389Z,92.80
2023-05-15T21:52:20.327Z,92.90
2023-05-15T21:54:49.758Z,92.90
2023-05-15T21:57:17.210Z,93.00
2023-05-15T21:59:44.055Z,93.00
2023-05-15T22:02:11.153Z,93.00
2023-05-15T22:04:38.131Z,93.00
2023-05-15T22:07:05.195Z,93.00
2023-05-15T22:09:32.346Z,93.00
2023-05-15T22:12:00.468Z,93.00
2023-05-15T22:14:28.571Z,93.00
2023-05-15T22:16:56.030Z,93.00
2023-05-15T22:19:33.166Z,93.40
2023-05-15T22:22:04.492Z,93.40
2023-05-15T22:24:33.702Z,93.10
2023-05-15T22:27:00.719Z,93.20
2023-05-15T22:29:30.587Z,93.30
2023-05-15T22:32:02.227Z,93.40
2023-05-15T22:34:32.024Z,93.50
2023-05-15T22:36:58.931Z,93.50
2023-05-15T22:39:25.932Z,93.60
2023-05-15T22:41:52.927Z,93.70
2023-05-15T22:44:19.993Z,93.70
2023-05-15T22:46:47.033Z,93.80
2023-05-15T22:49:19.187Z,93.90
2023-05-15T22:51:46.916Z,93.90
2023-05-15T22:54:13.888Z,94.00
2023-05-15T22:56:40.830Z,94.10
2023-05-15T22:59:09.515Z,94.20
2023-05-15T23:01:36.526Z,94.30
2023-05-15T23:04:04.188Z,94.40
2023-05-15T23:06:32.360Z,94.40
2023-05-15T23:08:59.629Z,94.40
2023-05-15T23:11:26.750Z,94.50
2023-05-15T23:13:54.048Z,94.60
2023-05-15T23:16:24.713Z,94.60
2023-05-15T23:18:55.110Z,94.60
2023-05-15T23:21:22.217Z,94.60
2023-05-15T23:23:49.275Z,94.60
2023-05-15T23:26:16.309Z,94.60
2023-05-15T23:28:43.254Z,94.60
2023-05-15T23:31:12.671Z,94.60
2023-05-15T23:33:39.905Z,94.60
2023-05-15T23:36:07.292Z,94.50
2023-05-15T23:38:36.585Z,94.40
2023-05-15T23:41:03.780Z,94.20
2023-05-15T23:43:30.740Z,94.20
2023-05-15T23:45:57.796Z,94.10
2023-05-15T23:48:25.501Z,94.10
2023-05-15T23:50:53.197Z,94.00
2023-05-15T23:53:20.317Z,94.00
2023-05-15T23:55:47.463Z,93.90
2023-05-15T23:58:14.330Z,93.90
